createdAt,value
2019-02-28T00:01:46.281Z,20.93
2019-02-28T00:04:12.727Z,26.47
2019-02-28T00:06:40.233Z,25.47
2019-02-28T00:09:09.219Z,24.63
2019-02-28T00:11:39.525Z,25.13
2019-02-28T00:14:06.023Z,26.33
2019-02-28T00:16:35.662Z,25.67
2019-02-28T00:19:02.714Z,25.97
2019-02-28T00:21:31.064Z,22.87
2019-02-28T00:23:58.453Z,26.23
2019-02-28T00:26:25.943Z,25.57
2019-02-28T00:28:53.343Z,28.50
2019-02-28T00:31:20.803Z,28.87
2019-02-28T00:33:48.698Z,27.03
2019-02-28T00:36:16.285Z,27.73
2019-02-28T00:38:45.559Z,30.60
2019-02-28T00:41:13.003Z,29.50
2019-02-28T00:43:40.483Z,32.37
2019-02-28T00:46:10.112Z,32.33
2019-02-28T00:48:37.224Z,37.70
2019-02-28T00:51:04.744Z,37.80
2019-02-28T00:53:32.378Z,32.97
2019-02-28T00:55:59.758Z,33.83
2019-02-28T00:58:28.864Z,34.47
2019-02-28T01:00:56.499Z,33.80
2019-02-28T01:03:27.417Z,35.40
2019-02-28T01:05:53.203Z,37.87
2019-02-28T01:08:22.131Z,34.03
2019-02-28T01:10:49.933Z,34.60
2019-02-28T01:13:17.353Z,34.07
2019-02-28T01:15:45.723Z,37.57
2019-02-28T01:18:13.315Z,33.60
2019-02-28T01:20:40.687Z,33.47
2019-02-28T01:23:08.213Z,37.47
2019-02-28T01:25:37.174Z,34.70
2019-02-28T01:28:04.958Z,34.20
2019-02-28T01:30:32.383Z,37.07
2019-02-28T01:32:59.813Z,34.13
2019-02-28T01:35:27.208Z,35.77
2019-02-28T01:37:54.676Z,35.43
2019-02-28T01:40:22.058Z,34.50
2019-02-28T01:42:53.914Z,36.63
2019-02-28T01:45:18.779Z,39.97
2019-02-28T01:47:46.233Z,33.93
2019-02-28T01:50:13.727Z,41.37
2019-02-28T01:52:44.846Z,35.03
2019-02-28T01:55:11.373Z,35.83
2019-02-28T01:57:42.507Z,39.63
2019-02-28T02:00:10.474Z,36.97
2019-02-28T02:02:38.971Z,34.00
2019-02-28T02:05:06.913Z,38.17
2019-02-28T02:07:35.123Z,38.67
2019-02-28T02:10:03.945Z,42.83
2019-02-28T02:12:32.469Z,38.97
2019-02-28T02:14:59.883Z,37.50
2019-02-28T02:17:27.403Z,38.27
2019-02-28T02:19:54.794Z,47.77
2019-02-28T02:22:22.243Z,37.53
2019-02-28T02:24:49.623Z,38.70
2019-02-28T02:27:19.540Z,35.10
2019-02-28T02:29:46.303Z,39.40
2019-02-28T02:32:13.758Z,36.37
2019-02-28T02:34:41.155Z,39.27
2019-02-28T02:37:08.533Z,38.00
2019-02-28T02:39:35.970Z,42.30
2019-02-28T02:42:09.979Z,41.53
2019-02-28T02:44:32.700Z,42.73
2019-02-28T02:47:00.155Z,36.93
2019-02-28T02:49:27.561Z,43.30
2019-02-28T02:51:54.935Z,42.40
2019-02-28T02:54:22.381Z,44.63
2019-02-28T02:56:49.798Z,47.43
2019-02-28T02:59:17.599Z,44.33
2019-02-28T03:01:44.990Z,48.57
2019-02-28T03:04:21.391Z,43.20
2019-02-28T03:06:45.863Z,52.13
2019-02-28T03:09:11.250Z,46.53
2019-02-28T03:11:38.753Z,48.23
2019-02-28T03:14:06.160Z,54.23
2019-02-28T03:16:34.635Z,49.33
2019-02-28T03:19:02.274Z,49.50
2019-02-28T03:21:29.670Z,47.77
2019-02-28T03:23:57.159Z,49.13
2019-02-28T03:26:24.591Z,52.40
2019-02-28T03:28:52.044Z,48.33
2019-02-28T03:31:19.544Z,54.97
2019-02-28T03:33:47.031Z,51.17
2019-02-28T03:36:15.828Z,54.87
2019-02-28T03:38:48.622Z,50.23
2019-02-28T03:41:17.642Z,52.50
2019-02-28T03:43:43.771Z,50.80
2019-02-28T03:46:11.706Z,56.40
2019-02-28T03:48:39.198Z,55.10
2019-02-28T03:51:06.605Z,51.07
2019-02-28T03:53:34.012Z,55.90
2019-02-28T03:56:01.387Z,57.70
2019-02-28T03:58:28.813Z,55.80
2019-02-28T04:00:56.195Z,54.50
2019-02-28T04:03:23.626Z,53.73
2019-02-28T04:05:51.048Z,56.80
2019-02-28T04:08:19.114Z,60.00
2019-02-28T04:10:46.778Z,65.93
2019-02-28T04:13:14.174Z,61.37
2019-02-28T04:15:49.567Z,64.23
2019-02-28T04:18:11.050Z,61.23
2019-02-28T04:20:38.456Z,63.37
2019-02-28T04:23:05.942Z,57.27
2019-02-28T04:25:33.383Z,59.93
2019-02-28T04:28:00.851Z,60.63
2019-02-28T04:30:32.429Z,57.87
2019-02-28T04:33:01.488Z,64.20
2019-02-28T04:35:29.159Z,58.73
2019-02-28T04:37:56.529Z,59.07
2019-02-28T04:40:26.774Z,55.37
2019-02-28T04:42:53.241Z,57.93
2019-02-28T04:45:23.325Z,52.63
2019-02-28T04:47:50.100Z,61.80
2019-02-28T04:50:18.123Z,52.50
2019-02-28T04:52:48.058Z,57.57
2019-02-28T04:55:14.908Z,58.23
2019-02-28T04:57:42.328Z,53.83
2019-02-28T05:00:09.998Z,51.80
2019-02-28T05:02:37.381Z,54.83
2019-02-28T05:05:04.948Z,51.63
2019-02-28T05:07:32.339Z,55.50
2019-02-28T05:09:59.873Z,60.17
2019-02-28T05:12:27.297Z,59.40
2019-02-28T05:14:55.320Z,61.07
2019-02-28T05:17:24.009Z,54.87
2019-02-28T05:19:51.443Z,62.30
2019-02-28T05:22:18.828Z,56.30
2019-02-28T05:24:46.273Z,58.97
2019-02-28T05:27:13.668Z,57.80
2019-02-28T05:29:43.898Z,57.83
2019-02-28T05:32:10.683Z,55.77
2019-02-28T05:34:38.100Z,56.87
2019-02-28T05:37:05.508Z,62.53
2019-02-28T05:39:32.979Z,64.83
2019-02-28T05:42:00.382Z,62.00
2019-02-28T05:44:28.089Z,53.00
2019-02-28T05:46:58.103Z,49.30
2019-02-28T05:49:25.923Z,54.60
2019-02-28T05:51:53.302Z,64.97
2019-02-28T05:54:20.761Z,56.43
2019-02-28T05:56:48.203Z,59.90
2019-02-28T05:59:15.562Z,63.83
2019-02-28T06:01:46.577Z,62.97
2019-02-28T06:04:12.316Z,63.03
2019-02-28T06:06:39.755Z,63.93
2019-02-28T06:09:07.142Z,63.53
2019-02-28T06:11:35.634Z,60.50
2019-02-28T06:14:03.372Z,71.97
2019-02-28T06:16:30.782Z,65.47
2019-02-28T06:18:58.176Z,62.30
2019-02-28T06:21:25.634Z,63.97
2019-02-28T06:23:53.059Z,58.57
2019-02-28T06:26:20.491Z,61.80
2019-02-28T06:28:47.909Z,60.67
2019-02-28T06:31:15.421Z,64.13
2019-02-28T06:33:43.036Z,60.73
2019-02-28T06:36:10.466Z,54.33
2019-02-28T06:38:37.871Z,66.50
2019-02-28T06:41:07.692Z,58.00
2019-02-28T06:43:34.576Z,61.40
2019-02-28T06:46:03.705Z,63.07
2019-02-28T06:48:31.262Z,56.87
2019-02-28T06:50:58.666Z,61.37
2019-02-28T06:53:27.150Z,60.77
2019-02-28T06:55:54.597Z,62.43
2019-02-28T06:58:22.021Z,58.27
2019-02-28T07:00:59.781Z,56.80
2019-02-28T07:03:23.101Z,57.87
2019-02-28T07:05:50.705Z,57.50
2019-02-28T07:08:24.448Z,59.23
2019-02-28T07:10:51.834Z,59.90
2019-02-28T07:13:19.255Z,56.67
2019-02-28T07:15:49.254Z,55.80
2019-02-28T07:18:18.829Z,57.17
2019-02-28T07:20:48.041Z,60.60
2019-02-28T07:23:15.553Z,59.37
2019-02-28T07:25:44.322Z,58.67
2019-02-28T07:28:12.371Z,51.03
2019-02-28T07:30:40.114Z,54.73
2019-02-28T07:33:10.569Z,54.87
2019-02-28T07:35:37.008Z,59.43
2019-02-28T07:38:04.566Z,59.00
2019-02-28T07:40:33.271Z,62.27
2019-02-28T07:43:01.011Z,69.40
2019-02-28T07:45:29.601Z,64.50
2019-02-28T07:47:57.806Z,61.83
2019-02-28T07:50:25.181Z,65.13
2019-02-28T07:52:53.272Z,61.13
2019-02-28T07:55:20.945Z,60.17
2019-02-28T07:57:54.235Z,66.87
2019-02-28T08:00:18.771Z,67.07
2019-02-28T08:02:46.705Z,71.07
2019-02-28T08:05:14.468Z,63.40
2019-02-28T08:07:42.229Z,62.97
2019-02-28T08:10:12.811Z,59.40
2019-02-28T08:12:41.135Z,69.77
2019-02-28T08:15:13.675Z,54.50
2019-02-28T08:17:43.852Z,61.83
2019-02-28T08:20:11.438Z,65.23
2019-02-28T08:22:39.110Z,67.63
2019-02-28T08:25:08.579Z,58.30
2019-02-28T08:27:36.447Z,59.27
2019-02-28T08:30:05.470Z,55.87
2019-02-28T08:32:33.875Z,54.70
2019-02-28T08:35:02.034Z,62.20
2019-02-28T08:37:29.760Z,59.67
2019-02-28T08:39:57.444Z,57.87
2019-02-28T08:42:25.144Z,62.53
2019-02-28T08:45:00.805Z,57.30
2019-02-28T08:47:28.425Z,60.43
2019-02-28T08:49:56.055Z,62.97
2019-02-28T08:52:32.885Z,64.87
2019-02-28T08:55:09.279Z,66.70
2019-02-28T08:57:37.266Z,62.87
2019-02-28T09:00:06.585Z,60.77
2019-02-28T09:02:34.185Z,62.77
2019-02-28T09:05:01.767Z,63.53
2019-02-28T09:07:29.365Z,64.03
2019-02-28T09:09:57.185Z,62.60
2019-02-28T09:12:24.704Z,60.90
2019-02-28T09:14:55.415Z,62.00
2019-02-28T09:17:23.671Z,63.60
2019-02-28T09:19:51.103Z,68.67
2019-02-28T09:22:18.499Z,64.07
2019-02-28T09:24:46.736Z,67.17
2019-02-28T09:27:15.873Z,66.47
2019-02-28T09:29:43.317Z,66.17
2019-02-28T09:32:13.523Z,63.83
2019-02-28T09:34:41.284Z,61.70
2019-02-28T09:37:08.857Z,67.30
2019-02-28T09:39:36.347Z,74.93
2019-02-28T09:42:03.967Z,63.93
2019-02-28T09:44:32.408Z,66.80
2019-02-28T09:47:00.012Z,68.93
2019-02-28T09:49:27.575Z,68.00
2019-02-28T09:51:54.947Z,66.83
2019-02-28T09:54:24.401Z,69.20
2019-02-28T09:56:51.717Z,65.23
2019-02-28T09:59:19.553Z,67.93
2019-02-28T10:01:46.947Z,75.23
2019-02-28T10:04:14.422Z,66.60
2019-02-28T10:06:41.909Z,73.57
2019-02-28T10:09:09.650Z,73.13
2019-02-28T10:11:37.254Z,77.77
2019-02-28T10:14:04.877Z,89.50
2019-02-28T10:16:32.414Z,78.57
2019-02-28T10:19:00.034Z,79.60
2019-02-28T10:21:27.574Z,70.80
2019-02-28T10:23:56.849Z,76.87
2019-02-28T10:26:25.635Z,73.83
2019-02-28T10:28:53.436Z,73.70
2019-02-28T10:31:22.853Z,80.53
2019-02-28T10:33:52.532Z,80.00
2019-02-28T10:36:20.095Z,77.83
2019-02-28T10:38:47.794Z,81.03
2019-02-28T10:41:15.522Z,77.93
2019-02-28T10:43:43.317Z,78.90
2019-02-28T10:46:13.321Z,75.67
2019-02-28T10:48:50.467Z,75.07
2019-02-28T10:51:14.089Z,81.20
2019-02-28T10:53:40.258Z,74.63
2019-02-28T10:56:07.887Z,75.23
2019-02-28T10:58:35.454Z,81.00
2019-02-28T11:01:07.564Z,76.13
2019-02-28T11:03:33.260Z,78.37
2019-02-28T11:06:00.994Z,76.27
2019-02-28T11:08:28.495Z,80.47
2019-02-28T11:10:56.118Z,85.27
2019-02-28T11:13:23.717Z,72.23
2019-02-28T11:15:51.454Z,71.80
2019-02-28T11:18:19.493Z,72.53
2019-02-28T11:20:47.094Z,75.27
2019-02-28T11:23:15.872Z,73.93
2019-02-28T11:25:43.974Z,74.67
2019-02-28T11:28:11.634Z,73.97
2019-02-28T11:30:44.005Z,79.80
2019-02-28T11:33:09.115Z,68.47
2019-02-28T11:35:36.794Z,71.87
2019-02-28T11:38:05.094Z,70.47
2019-02-28T11:40:33.605Z,71.80
2019-02-28T11:43:02.726Z,67.40
2019-02-28T11:45:32.226Z,73.70
2019-02-28T11:48:02.275Z,76.47
2019-02-28T11:50:29.974Z,68.07
2019-02-28T11:53:03.261Z,72.30
2019-02-28T11:55:27.250Z,73.47
2019-02-28T11:57:54.924Z,68.57
2019-02-28T12:00:26.454Z,72.87
2019-02-28T12:02:59.919Z,68.20
2019-02-28T12:05:23.783Z,71.87
2019-02-28T12:07:51.274Z,70.50
2019-02-28T12:10:19.155Z,71.30
2019-02-28T12:12:46.754Z,65.90
2019-02-28T12:15:15.814Z,68.53
2019-02-28T12:17:43.454Z,63.80
2019-02-28T12:20:11.935Z,72.50
2019-02-28T12:22:39.676Z,71.53
2019-02-28T12:25:08.529Z,68.93
2019-02-28T12:27:36.176Z,68.43
2019-02-28T12:30:05.095Z,66.90
2019-02-28T12:32:33.019Z,70.80
2019-02-28T12:35:02.295Z,71.30
2019-02-28T12:37:36.474Z,66.17
2019-02-28T12:40:49.917Z,72.40
2019-02-28T12:43:30.255Z,71.50
2019-02-28T12:46:00.122Z,72.27
2019-02-28T12:48:27.616Z,70.67
2019-02-28T12:50:56.403Z,73.60
2019-02-28T12:53:35.255Z,77.20
2019-02-28T12:56:25.214Z,76.67
2019-02-28T12:59:02.815Z,78.27
2019-02-28T13:01:58.514Z,73.97
2019-02-28T13:04:39.387Z,78.37
2019-02-28T13:07:15.273Z,72.20
2019-02-28T13:10:06.947Z,71.33
2019-02-28T13:12:35.145Z,68.03
2019-02-28T13:15:46.805Z,72.47
2019-02-28T13:18:34.865Z,72.20
2019-02-28T13:21:43.614Z,74.27
2019-02-28T13:24:16.306Z,73.33
2019-02-28T13:28:17.678Z,74.70
2019-02-28T13:32:04.020Z,73.50
2019-02-28T13:41:22.111Z,80.53
2019-02-28T13:44:36.290Z,82.30
2019-02-28T13:47:58.062Z,77.43
2019-02-28T13:51:40.696Z,72.63
2019-02-28T13:54:23.509Z,77.90
2019-02-28T13:57:13.626Z,75.07
2019-02-28T14:00:24.020Z,72.03
2019-02-28T14:02:56.609Z,73.53
2019-02-28T14:06:19.794Z,77.23
2019-02-28T14:08:47.764Z,72.33
2019-02-28T14:12:05.690Z,76.60
2019-02-28T14:14:42.291Z,76.17
2019-02-28T14:18:11.588Z,74.67
2019-02-28T14:20:37.933Z,77.70
2019-02-28T14:23:05.725Z,76.73
2019-02-28T14:25:39.794Z,71.10
2019-02-28T14:28:06.494Z,74.13
2019-02-28T14:31:32.980Z,79.90
2019-02-28T14:33:16.187Z,72.93
2019-02-28T14:35:57.894Z,76.90
2019-02-28T14:38:51.465Z,73.10
2019-02-28T14:44:58.970Z,74.20
2019-02-28T14:47:28.523Z,74.20
2019-02-28T14:51:07.467Z,73.20
2019-02-28T14:53:49.128Z,73.03
2019-02-28T14:56:49.056Z,72.97
2019-02-28T15:00:42.301Z,71.80
2019-02-28T15:04:17.004Z,69.60
2019-02-28T15:07:59.033Z,72.30
2019-02-28T15:11:10.025Z,73.53
2019-02-28T15:14:37.305Z,80.43
2019-02-28T15:17:38.667Z,62.40
2019-02-28T15:20:31.701Z,75.87
2019-02-28T15:23:02.783Z,75.17
2019-02-28T15:25:35.782Z,75.23
2019-02-28T15:28:19.844Z,76.27
2019-02-28T15:34:25.237Z,71.10
2019-02-28T15:37:04.243Z,70.13
2019-02-28T15:39:36.808Z,77.47
2019-02-28T15:43:41.927Z,78.50
2019-02-28T15:46:01.805Z,82.07
2019-02-28T15:55:50.194Z,74.73
2019-02-28T15:58:42.322Z,75.20
2019-02-28T16:02:09.445Z,80.13
2019-02-28T16:05:05.689Z,72.03
2019-02-28T16:08:21.951Z,67.10
2019-02-28T16:11:27.721Z,68.30
2019-02-28T16:14:14.288Z,77.67
2019-02-28T16:17:14.644Z,71.07
2019-02-28T16:19:48.568Z,73.37
2019-02-28T16:23:16.223Z,78.33
2019-02-28T16:25:46.888Z,72.90
2019-02-28T16:28:29.806Z,71.07
2019-02-28T16:31:18.736Z,75.13
2019-02-28T16:33:52.161Z,75.30
2019-02-28T16:40:57.701Z,78.33
2019-02-28T16:48:06.998Z,70.00
2019-02-28T16:51:03.106Z,84.17
2019-02-28T17:01:45.906Z,83.83
2019-02-28T17:05:28.164Z,81.90
2019-02-28T17:20:22.176Z,85.80
2019-02-28T17:22:52.209Z,82.73
2019-02-28T17:25:39.800Z,82.33
2019-02-28T17:28:23.997Z,91.83
2019-02-28T17:31:12.506Z,83.97
2019-02-28T17:34:31.241Z,92.13
2019-02-28T17:37:36.213Z,94.63
2019-02-28T17:40:09.254Z,94.87
2019-02-28T17:43:04.113Z,97.97
2019-02-28T17:46:22.767Z,91.87
2019-02-28T17:49:50.874Z,95.47
2019-02-28T17:53:18.472Z,85.80
2019-02-28T17:58:06.922Z,72.87
2019-02-28T18:00:57.468Z,78.63
2019-02-28T18:08:27.815Z,60.27
2019-02-28T18:12:05.967Z,54.63
2019-02-28T18:18:53.234Z,51.67
2019-02-28T18:22:12.935Z,53.87
2019-02-28T18:25:32.754Z,51.57
2019-02-28T18:28:58.914Z,48.63
2019-02-28T18:32:12.654Z,48.03
2019-02-28T18:34:48.923Z,47.07
2019-02-28T18:37:17.422Z,52.97
2019-02-28T18:40:10.576Z,52.07
2019-02-28T18:42:54.054Z,58.30
2019-02-28T18:45:38.186Z,53.80
2019-02-28T18:48:25.745Z,50.17
2019-02-28T18:51:20.394Z,52.80
2019-02-28T18:53:50.938Z,47.70
2019-02-28T18:56:39.307Z,56.87
2019-02-28T18:59:16.404Z,54.90
2019-02-28T19:01:50.463Z,59.57
2019-02-28T19:04:24.645Z,63.13
2019-02-28T19:06:56.102Z,50.57
2019-02-28T19:09:25.162Z,58.80
2019-02-28T19:11:59.295Z,58.90
2019-02-28T19:14:38.065Z,65.73
2019-02-28T19:17:10.771Z,65.00
2019-02-28T19:19:39.262Z,67.27
2019-02-28T19:22:07.534Z,60.53
2019-02-28T19:24:36.242Z,65.10
2019-02-28T19:27:05.788Z,63.90
2019-02-28T19:29:34.106Z,66.53
2019-02-28T19:32:02.255Z,71.07
2019-02-28T19:34:30.509Z,66.63
2019-02-28T19:36:59.714Z,69.33
2019-02-28T19:39:27.695Z,66.83
2019-02-28T19:41:55.834Z,70.63
2019-02-28T19:44:23.835Z,68.07
2019-02-28T19:46:52.094Z,68.87
2019-02-28T19:49:20.440Z,65.60
2019-02-28T19:51:48.878Z,70.30
2019-02-28T19:54:18.038Z,67.83
2019-02-28T19:56:46.683Z,71.23
2019-02-28T19:59:15.455Z,74.77
2019-02-28T20:01:45.333Z,69.67
2019-02-28T20:04:15.390Z,78.43
2019-02-28T20:06:43.902Z,75.07
2019-02-28T20:09:13.554Z,69.47
2019-02-28T20:11:41.594Z,74.77
2019-02-28T20:14:09.674Z,75.37
2019-02-28T20:16:38.014Z,73.63
2019-02-28T20:19:07.215Z,69.70
2019-02-28T20:21:35.295Z,65.33
2019-02-28T20:24:03.497Z,68.73
2019-02-28T20:26:31.622Z,76.53
2019-02-28T20:28:59.955Z,71.50
2019-02-28T20:31:29.854Z,82.27
2019-02-28T20:33:57.856Z,75.20
2019-02-28T20:36:27.142Z,71.67
2019-02-28T20:38:56.619Z,68.10
2019-02-28T20:41:24.676Z,63.03
2019-02-28T20:43:54.855Z,65.90
2019-02-28T20:46:22.934Z,60.10
2019-02-28T20:48:50.956Z,58.97
2019-02-28T20:51:19.479Z,59.30
2019-02-28T20:53:47.434Z,61.67
2019-02-28T20:56:15.594Z,60.97
2019-02-28T20:58:43.555Z,59.50
2019-02-28T21:01:11.948Z,59.63
2019-02-28T21:03:40.114Z,54.77
2019-02-28T21:06:08.155Z,51.17
2019-02-28T21:08:36.284Z,48.83
2019-02-28T21:11:04.414Z,49.17
2019-02-28T21:13:32.495Z,45.47
2019-02-28T21:16:00.776Z,46.97
2019-02-28T21:18:28.734Z,52.57
2019-02-28T21:20:56.694Z,51.47
2019-02-28T21:23:24.655Z,49.13
2019-02-28T21:25:52.665Z,49.13
2019-02-28T21:28:20.906Z,46.87
2019-02-28T21:30:49.054Z,52.47
2019-02-28T21:33:17.202Z,48.57
2019-02-28T21:35:45.237Z,52.57
2019-02-28T21:38:13.275Z,55.77
2019-02-28T21:40:41.274Z,48.47
2019-02-28T21:43:09.247Z,52.37
2019-02-28T21:45:37.315Z,50.70
2019-02-28T21:48:05.278Z,57.23
2019-02-28T21:50:32.894Z,51.77
2019-02-28T21:53:00.696Z,49.63
2019-02-28T21:55:28.235Z,48.30
2019-02-28T21:57:56.035Z,49.37
2019-02-28T22:00:23.874Z,52.20
2019-02-28T22:02:51.495Z,51.43
2019-02-28T22:05:19.197Z,47.50
2019-02-28T22:07:46.800Z,49.00
2019-02-28T22:10:14.576Z,44.60
2019-02-28T22:12:42.174Z,51.27
2019-02-28T22:15:11.974Z,50.93
2019-02-28T22:17:40.173Z,48.90
2019-02-28T22:20:09.015Z,46.50
2019-02-28T22:22:36.635Z,45.67
2019-02-28T22:25:04.387Z,48.47
2019-02-28T22:27:32.135Z,46.07
2019-02-28T22:30:02.294Z,51.47
2019-02-28T22:32:35.644Z,49.10
2019-02-28T22:35:25.774Z,47.47
2019-02-28T22:37:53.355Z,48.27
2019-02-28T22:40:20.895Z,48.30
2019-02-28T22:42:48.454Z,54.27
2019-02-28T22:45:17.214Z,47.73
2019-02-28T22:47:44.754Z,46.90
2019-02-28T22:50:13.154Z,44.07
2019-02-28T22:52:40.757Z,42.70
2019-02-28T22:55:08.594Z,45.87
2019-02-28T22:57:36.235Z,44.73
2019-02-28T23:00:08.434Z,43.93
2019-02-28T23:02:35.955Z,40.87
2019-02-28T23:05:03.671Z,40.87
2019-02-28T23:07:31.242Z,35.10
2019-02-28T23:09:58.814Z,42.07
2019-02-28T23:12:26.371Z,34.73
2019-02-28T23:14:56.751Z,39.27
2019-02-28T23:17:24.534Z,38.93
2019-02-28T23:19:52.117Z,42.47
2019-02-28T23:22:19.695Z,41.00
2019-02-28T23:24:47.455Z,38.23
2019-02-28T23:27:16.714Z,39.40
2019-02-28T23:30:00.545Z,36.37
2019-02-28T23:33:08.069Z,39.90
2019-02-28T23:35:49.173Z,35.17
2019-02-28T23:38:25.153Z,32.53
2019-02-28T23:41:03.109Z,33.87
2019-02-28T23:43:31.474Z,34.27
2019-02-28T23:45:59.454Z,32.00
2019-02-28T23:48:28.013Z,37.53
2019-02-28T23:51:05.154Z,33.63
2019-02-28T23:53:36.934Z,36.93
2019-02-28T23:56:04.792Z,34.57
2019-02-28T23:58:33.677Z,38.30
